sensor_id;sensor_type;location;lat;lon;timestamp;pressure;altitude;pressure_sealevel;temperature;humidity
50302;BME280;36550;50.472;19.744;2023-02-13T00:00:21;99995.79;;;2.73;82.89
50302;BME280;36550;50.472;19.744;2023-02-13T00:03:05;99994.92;;;2.72;82.89
50302;BME280;36550;50.472;19.744;2023-02-13T00:05:49;99995.80;;;2.71;82.80
50302;BME280;36550;50.472;19.744;2023-02-13T00:08:34;99992.45;;;2.72;82.79
50302;BME280;36550;50.472;19.744;2023-02-13T00:11:18;99985.49;;;2.72;82.93
50302;BME280;36550;50.472;19.744;2023-02-13T00:14:04;99984.32;;;2.72;83.07
50302;BME280;36550;50.472;19.744;2023-02-13T00:16:48;99981.30;;;2.73;83.02
50302;BME280;36550;50.472;19.744;2023-02-13T00:19:32;99982.70;;;2.75;83.08
50302;BME280;36550;50.472;19.744;2023-02-13T00:22:15;99982.61;;;2.76;83.15
50302;BME280;36550;50.472;19.744;2023-02-13T00:24:59;99977.59;;;2.76;83.27
50302;BME280;36550;50.472;19.744;2023-02-13T00:27:43;99977.67;;;2.73;83.24
50302;BME280;36550;50.472;19.744;2023-02-13T00:30:27;99979.30;;;2.70;83.34
50302;BME280;36550;50.472;19.744;2023-02-13T00:33:11;99977.23;;;2.66;83.44
50302;BME280;36550;50.472;19.744;2023-02-13T00:36:06;99977.45;;;2.66;83.47
50302;BME280;36550;50.472;19.744;2023-02-13T00:38:52;99974.23;;;2.64;83.41
50302;BME280;36550;50.472;19.744;2023-02-13T00:41:36;99970.54;;;2.65;83.41
50302;BME280;36550;50.472;19.744;2023-02-13T00:44:20;99969.38;;;2.67;83.60
50302;BME280;36550;50.472;19.744;2023-02-13T00:47:03;99968.90;;;2.70;83.65
50302;BME280;36550;50.472;19.744;2023-02-13T00:49:47;99965.25;;;2.73;83.60
50302;BME280;36550;50.472;19.744;2023-02-13T00:52:31;99964.30;;;2.76;83.64
50302;BME280;36550;50.472;19.744;2023-02-13T00:55:15;99959.90;;;2.76;83.71
50302;BME280;36550;50.472;19.744;2023-02-13T00:58:00;99954.80;;;2.77;83.84
50302;BME280;36550;50.472;19.744;2023-02-13T01:00:45;99950.68;;;2.77;84.01
50302;BME280;36550;50.472;19.744;2023-02-13T01:03:31;99940.74;;;2.78;84.11
50302;BME280;36550;50.472;19.744;2023-02-13T01:06:15;99940.85;;;2.81;84.06
50302;BME280;36550;50.472;19.744;2023-02-13T01:08:59;99936.80;;;2.83;84.08
50302;BME280;36550;50.472;19.744;2023-02-13T01:11:43;99937.39;;;2.88;83.88
50302;BME280;36550;50.472;19.744;2023-02-13T01:14:27;99940.83;;;2.93;83.73
50302;BME280;36550;50.472;19.744;2023-02-13T01:17:11;99937.19;;;2.97;83.76
50302;BME280;36550;50.472;19.744;2023-02-13T01:19:55;99935.48;;;3.00;83.70
50302;BME280;36550;50.472;19.744;2023-02-13T01:22:40;99931.88;;;3.02;83.71
50302;BME280;36550;50.472;19.744;2023-02-13T01:25:26;99930.94;;;3.03;83.71
50302;BME280;36550;50.472;19.744;2023-02-13T01:28:11;99928.38;;;3.02;83.68
50302;BME280;36550;50.472;19.744;2023-02-13T01:30:56;99928.88;;;3.01;83.77
50302;BME280;36550;50.472;19.744;2023-02-13T01:33:40;99930.42;;;2.99;83.76
50302;BME280;36550;50.472;19.744;2023-02-13T01:36:25;99926.80;;;2.99;83.68
50302;BME280;36550;50.472;19.744;2023-02-13T01:39:10;99925.52;;;3.02;83.55
50302;BME280;36550;50.472;19.744;2023-02-13T01:41:54;99923.11;;;3.05;83.53
50302;BME280;36550;50.472;19.744;2023-02-13T01:44:53;99925.58;;;3.08;83.55
50302;BME280;36550;50.472;19.744;2023-02-13T01:47:42;99918.79;;;3.09;83.54
50302;BME280;36550;50.472;19.744;2023-02-13T01:50:37;99918.51;;;3.11;83.58
50302;BME280;36550;50.472;19.744;2023-02-13T01:53:39;99913.05;;;3.07;83.66
50302;BME280;36550;50.472;19.744;2023-02-13T01:56:33;99909.55;;;3.04;83.78
50302;BME280;36550;50.472;19.744;2023-02-13T01:59:24;99902.41;;;3.01;83.92
50302;BME280;36550;50.472;19.744;2023-02-13T02:02:09;99900.59;;;2.98;83.80
50302;BME280;36550;50.472;19.744;2023-02-13T02:04:54;99900.02;;;2.99;83.80
50302;BME280;36550;50.472;19.744;2023-02-13T02:07:39;99905.25;;;3.00;83.71
50302;BME280;36550;50.472;19.744;2023-02-13T02:10:24;99905.46;;;3.01;83.73
50302;BME280;36550;50.472;19.744;2023-02-13T02:15:56;99910.00;;;3.01;83.76
50302;BME280;36550;50.472;19.744;2023-02-13T02:18:40;99910.41;;;2.98;83.72
50302;BME280;36550;50.472;19.744;2023-02-13T02:21:40;99909.67;;;2.97;83.87
50302;BME280;36550;50.472;19.744;2023-02-13T02:24:52;99903.14;;;2.97;83.95
50302;BME280;36550;50.472;19.744;2023-02-13T02:43:05;99898.48;;;3.06;84.06
50302;BME280;36550;50.472;19.744;2023-02-13T02:46:06;99895.05;;;3.06;84.19
50302;BME280;36550;50.472;19.744;2023-02-13T02:49:13;99897.52;;;3.05;84.28
50302;BME280;36550;50.472;19.744;2023-02-13T02:52:18;99894.19;;;3.00;84.40
50302;BME280;36550;50.472;19.744;2023-02-13T02:55:19;99895.59;;;2.94;84.58
50302;BME280;36550;50.472;19.744;2023-02-13T02:58:32;99896.04;;;2.91;84.48
50302;BME280;36550;50.472;19.744;2023-02-13T03:01:34;99896.69;;;2.85;84.50
50302;BME280;36550;50.472;19.744;2023-02-13T03:04:50;99898.30;;;2.83;84.46
50302;BME280;36550;50.472;19.744;2023-02-13T03:07:55;99903.17;;;2.82;84.65
50302;BME280;36550;50.472;19.744;2023-02-13T03:10:39;99903.30;;;2.83;84.74
50302;BME280;36550;50.472;19.744;2023-02-13T03:13:45;99903.88;;;2.83;84.92
50302;BME280;36550;50.472;19.744;2023-02-13T03:16:31;99908.86;;;2.83;84.91
50302;BME280;36550;50.472;19.744;2023-02-13T03:28:40;99900.77;;;2.80;84.98
50302;BME280;36550;50.472;19.744;2023-02-13T03:31:52;99899.15;;;2.79;85.00
50302;BME280;36550;50.472;19.744;2023-02-13T03:34:49;99905.98;;;2.77;85.18
50302;BME280;36550;50.472;19.744;2023-02-13T03:38:09;99909.39;;;2.75;85.10
50302;BME280;36550;50.472;19.744;2023-02-13T03:41:00;99914.79;;;2.75;85.12
50302;BME280;36550;50.472;19.744;2023-02-13T03:44:08;99920.16;;;2.74;85.21
50302;BME280;36550;50.472;19.744;2023-02-13T03:46:56;99918.06;;;2.75;85.28
50302;BME280;36550;50.472;19.744;2023-02-13T03:49:46;99915.90;;;2.76;85.21
50302;BME280;36550;50.472;19.744;2023-02-13T03:53:01;99917.70;;;2.78;85.22
50302;BME280;36550;50.472;19.744;2023-02-13T03:55:46;99920.69;;;2.82;85.13
50302;BME280;36550;50.472;19.744;2023-02-13T03:58:52;99915.60;;;2.84;85.28
50302;BME280;36550;50.472;19.744;2023-02-13T04:02:07;99913.06;;;2.88;85.30
50302;BME280;36550;50.472;19.744;2023-02-13T04:05:03;99916.42;;;2.89;85.36
50302;BME280;36550;50.472;19.744;2023-02-13T04:07:51;99914.48;;;2.87;85.46
50302;BME280;36550;50.472;19.744;2023-02-13T04:10:44;99914.58;;;2.85;85.30
50302;BME280;36550;50.472;19.744;2023-02-13T04:13:33;99912.66;;;2.79;85.48
50302;BME280;36550;50.472;19.744;2023-02-13T04:16:32;99906.52;;;2.76;85.32
50302;BME280;36550;50.472;19.744;2023-02-13T04:19:17;99906.25;;;2.73;85.38
50302;BME280;36550;50.472;19.744;2023-02-13T04:22:02;99903.41;;;2.70;85.32
50302;BME280;36550;50.472;19.744;2023-02-13T04:24:46;99900.45;;;2.67;85.62
50302;BME280;36550;50.472;19.744;2023-02-13T04:27:30;99901.48;;;2.65;85.84
50302;BME280;36550;50.472;19.744;2023-02-13T04:30:14;99903.54;;;2.63;85.84
50302;BME280;36550;50.472;19.744;2023-02-13T04:32:58;99909.14;;;2.62;86.02
50302;BME280;36550;50.472;19.744;2023-02-13T04:35:42;99913.10;;;2.62;85.80
50302;BME280;36550;50.472;19.744;2023-02-13T04:38:26;99913.26;;;2.62;86.03
50302;BME280;36550;50.472;19.744;2023-02-13T04:41:10;99917.23;;;2.60;86.00
50302;BME280;36550;50.472;19.744;2023-02-13T04:43:53;99919.42;;;2.57;86.11
50302;BME280;36550;50.472;19.744;2023-02-13T04:46:37;99912.44;;;2.54;85.97
50302;BME280;36550;50.472;19.744;2023-02-13T04:49:21;99910.28;;;2.55;85.92
50302;BME280;36550;50.472;19.744;2023-02-13T04:52:05;99911.20;;;2.57;85.83
50302;BME280;36550;50.472;19.744;2023-02-13T04:54:49;99912.27;;;2.60;85.88
50302;BME280;36550;50.472;19.744;2023-02-13T04:57:33;99915.36;;;2.64;85.97
50302;BME280;36550;50.472;19.744;2023-02-13T05:00:18;99907.64;;;2.67;86.03
50302;BME280;36550;50.472;19.744;2023-02-13T05:03:06;99904.64;;;2.70;86.01
50302;BME280;36550;50.472;19.744;2023-02-13T05:05:50;99904.80;;;2.72;86.11
50302;BME280;36550;50.472;19.744;2023-02-13T05:08:34;99905.41;;;2.73;86.19
50302;BME280;36550;50.472;19.744;2023-02-13T05:11:18;99907.45;;;2.73;86.28
50302;BME280;36550;50.472;19.744;2023-02-13T05:14:02;99908.46;;;2.74;86.29
50302;BME280;36550;50.472;19.744;2023-02-13T05:16:46;99910.39;;;2.77;86.21
50302;BME280;36550;50.472;19.744;2023-02-13T05:19:32;99910.09;;;2.80;86.22
50302;BME280;36550;50.472;19.744;2023-02-13T05:22:16;99909.49;;;2.85;86.10
50302;BME280;36550;50.472;19.744;2023-02-13T05:25:19;99911.77;;;2.89;86.04
50302;BME280;36550;50.472;19.744;2023-02-13T05:28:04;99915.36;;;2.94;86.04
50302;BME280;36550;50.472;19.744;2023-02-13T05:31:08;99905.44;;;2.96;86.08
50302;BME280;36550;50.472;19.744;2023-02-13T05:33:52;99903.34;;;2.96;86.09
50302;BME280;36550;50.472;19.744;2023-02-13T05:36:36;99906.79;;;2.94;86.02
50302;BME280;36550;50.472;19.744;2023-02-13T05:39:20;99902.19;;;2.92;86.11
50302;BME280;36550;50.472;19.744;2023-02-13T05:42:04;99899.98;;;2.87;86.00
50302;BME280;36550;50.472;19.744;2023-02-13T05:44:48;99900.10;;;2.88;85.97
50302;BME280;36550;50.472;19.744;2023-02-13T05:47:32;99899.80;;;2.87;86.00
50302;BME280;36550;50.472;19.744;2023-02-13T05:50:16;99899.33;;;2.87;85.85
50302;BME280;36550;50.472;19.744;2023-02-13T05:52:59;99898.90;;;2.86;85.78
50302;BME280;36550;50.472;19.744;2023-02-13T05:55:43;99898.80;;;2.85;85.90
50302;BME280;36550;50.472;19.744;2023-02-13T05:58:27;99898.83;;;2.83;85.93
50302;BME280;36550;50.472;19.744;2023-02-13T06:01:12;99904.79;;;2.80;85.90
50302;BME280;36550;50.472;19.744;2023-02-13T06:03:56;99906.36;;;2.78;86.21
50302;BME280;36550;50.472;19.744;2023-02-13T06:06:39;99913.33;;;2.77;86.26
50302;BME280;36550;50.472;19.744;2023-02-13T06:09:23;99911.92;;;2.77;86.28
50302;BME280;36550;50.472;19.744;2023-02-13T06:12:07;99920.60;;;2.79;86.56
50302;BME280;36550;50.472;19.744;2023-02-13T06:14:51;99921.90;;;2.80;86.77
50302;BME280;36550;50.472;19.744;2023-02-13T06:17:35;99923.66;;;2.81;86.98
50302;BME280;36550;50.472;19.744;2023-02-13T06:20:19;99925.38;;;2.85;86.88
50302;BME280;36550;50.472;19.744;2023-02-13T06:23:03;99935.33;;;2.93;86.77
50302;BME280;36550;50.472;19.744;2023-02-13T06:25:47;99943.66;;;2.98;86.77
50302;BME280;36550;50.472;19.744;2023-02-13T06:28:31;99947.98;;;3.00;87.14
50302;BME280;36550;50.472;19.744;2023-02-13T06:31:15;99950.46;;;3.01;87.12
50302;BME280;36550;50.472;19.744;2023-02-13T06:33:59;99951.22;;;3.02;87.10
50302;BME280;36550;50.472;19.744;2023-02-13T06:36:43;99949.42;;;3.07;87.04
50302;BME280;36550;50.472;19.744;2023-02-13T06:39:27;99949.67;;;3.14;86.92
50302;BME280;36550;50.472;19.744;2023-02-13T06:42:10;99950.14;;;3.20;86.92
50302;BME280;36550;50.472;19.744;2023-02-13T06:44:54;99944.51;;;3.27;86.94
50302;BME280;36550;50.472;19.744;2023-02-13T06:47:42;99942.75;;;3.31;86.98
50302;BME280;36550;50.472;19.744;2023-02-13T06:50:26;99945.19;;;3.35;86.99
50302;BME280;36550;50.472;19.744;2023-02-13T06:53:10;99944.40;;;3.40;86.81
50302;BME280;36550;50.472;19.744;2023-02-13T06:55:55;99944.58;;;3.47;86.75
50302;BME280;36550;50.472;19.744;2023-02-13T06:58:39;99948.08;;;3.54;86.71
50302;BME280;36550;50.472;19.744;2023-02-13T07:01:23;99943.04;;;3.60;86.58
50302;BME280;36550;50.472;19.744;2023-02-13T07:04:06;99942.00;;;3.66;86.44
50302;BME280;36550;50.472;19.744;2023-02-13T07:06:53;99942.11;;;3.70;86.63
50302;BME280;36550;50.472;19.744;2023-02-13T07:09:38;99944.90;;;3.78;86.53
50302;BME280;36550;50.472;19.744;2023-02-13T07:12:22;99943.81;;;3.86;86.51
50302;BME280;36550;50.472;19.744;2023-02-13T07:15:06;99945.38;;;3.95;86.47
50302;BME280;36550;50.472;19.744;2023-02-13T07:17:55;99937.44;;;4.07;86.34
50302;BME280;36550;50.472;19.744;2023-02-13T07:20:40;99931.49;;;4.19;86.19
50302;BME280;36550;50.472;19.744;2023-02-13T07:23:24;99927.29;;;4.29;86.02
50302;BME280;36550;50.472;19.744;2023-02-13T07:26:08;99926.73;;;4.38;85.95
50302;BME280;36550;50.472;19.744;2023-02-13T07:28:53;99927.61;;;4.43;85.79
50302;BME280;36550;50.472;19.744;2023-02-13T07:31:37;99927.55;;;4.50;85.70
50302;BME280;36550;50.472;19.744;2023-02-13T07:34:21;99924.58;;;4.56;85.70
50302;BME280;36550;50.472;19.744;2023-02-13T07:37:05;99918.13;;;4.61;85.63
50302;BME280;36550;50.472;19.744;2023-02-13T07:39:49;99915.39;;;4.64;85.55
50302;BME280;36550;50.472;19.744;2023-02-13T07:42:33;99908.02;;;4.72;85.37
50302;BME280;36550;50.472;19.744;2023-02-13T07:45:17;99901.64;;;4.83;85.12
50302;BME280;36550;50.472;19.744;2023-02-13T07:48:01;99905.18;;;4.95;85.04
50302;BME280;36550;50.472;19.744;2023-02-13T07:51:08;99907.74;;;5.07;85.03
50302;BME280;36550;50.472;19.744;2023-02-13T07:53:52;99913.45;;;5.13;84.56
50302;BME280;36550;50.472;19.744;2023-02-13T07:56:36;99912.30;;;5.17;84.45
50302;BME280;36550;50.472;19.744;2023-02-13T07:59:21;99913.30;;;5.19;84.46
50302;BME280;36550;50.472;19.744;2023-02-13T08:02:09;99908.60;;;5.18;84.10
50302;BME280;36550;50.472;19.744;2023-02-13T08:04:54;99911.58;;;5.11;83.82
50302;BME280;36550;50.472;19.744;2023-02-13T08:07:38;99909.44;;;5.08;83.68
50302;BME280;36550;50.472;19.744;2023-02-13T08:10:22;99911.56;;;5.09;83.45
50302;BME280;36550;50.472;19.744;2023-02-13T08:13:25;99910.97;;;5.05;83.35
50302;BME280;36550;50.472;19.744;2023-02-13T08:16:10;99914.67;;;5.04;83.32
50302;BME280;36550;50.472;19.744;2023-02-13T08:18:54;99916.40;;;5.16;83.24
50302;BME280;36550;50.472;19.744;2023-02-13T08:21:38;99923.27;;;5.29;83.55
50302;BME280;36550;50.472;19.744;2023-02-13T08:24:23;99924.45;;;5.44;83.62
50302;BME280;36550;50.472;19.744;2023-02-13T08:27:10;99925.21;;;5.64;83.51
50302;BME280;36550;50.472;19.744;2023-02-13T08:29:56;99923.35;;;5.75;83.20
50302;BME280;36550;50.472;19.744;2023-02-13T08:32:41;99924.77;;;5.73;82.84
50302;BME280;36550;50.472;19.744;2023-02-13T08:35:24;99926.30;;;5.74;82.88
50302;BME280;36550;50.472;19.744;2023-02-13T08:38:12;99928.12;;;5.97;82.92
50302;BME280;36550;50.472;19.744;2023-02-13T08:40:56;99924.82;;;6.30;82.38
50302;BME280;36550;50.472;19.744;2023-02-13T08:43:40;99926.32;;;6.60;82.31
50302;BME280;36550;50.472;19.744;2023-02-13T08:46:23;99925.21;;;6.69;81.57
50302;BME280;36550;50.472;19.744;2023-02-13T08:49:08;99920.22;;;6.67;80.50
50302;BME280;36550;50.472;19.744;2023-02-13T08:51:51;99924.73;;;6.70;80.94
50302;BME280;36550;50.472;19.744;2023-02-13T08:54:35;99926.43;;;6.76;81.26
50302;BME280;36550;50.472;19.744;2023-02-13T08:57:19;99926.90;;;6.85;80.90
50302;BME280;36550;50.472;19.744;2023-02-13T09:00:04;99926.34;;;6.91;80.41
50302;BME280;36550;50.472;19.744;2023-02-13T09:02:48;99921.67;;;6.91;79.90
50302;BME280;36550;50.472;19.744;2023-02-13T09:05:32;99926.98;;;6.93;80.00
50302;BME280;36550;50.472;19.744;2023-02-13T09:08:16;99926.87;;;7.00;79.98
50302;BME280;36550;50.472;19.744;2023-02-13T09:11:02;99924.73;;;7.03;79.72
50302;BME280;36550;50.472;19.744;2023-02-13T09:13:51;99927.55;;;7.09;79.75
50302;BME280;36550;50.472;19.744;2023-02-13T09:16:35;99929.42;;;7.18;78.71
50302;BME280;36550;50.472;19.744;2023-02-13T09:19:19;99926.90;;;7.30;79.16
50302;BME280;36550;50.472;19.744;2023-02-13T09:22:03;99925.09;;;7.39;79.04
50302;BME280;36550;50.472;19.744;2023-02-13T09:24:47;99924.73;;;7.42;78.97
50302;BME280;36550;50.472;19.744;2023-02-13T09:27:31;99922.30;;;7.50;79.16
50302;BME280;36550;50.472;19.744;2023-02-13T09:30:16;99921.23;;;7.52;78.65
50302;BME280;36550;50.472;19.744;2023-02-13T09:33:09;99920.53;;;7.54;78.59
50302;BME280;36550;50.472;19.744;2023-02-13T09:35:53;99916.30;;;7.63;78.12
50302;BME280;36550;50.472;19.744;2023-02-13T09:38:37;99914.73;;;7.68;77.77
50302;BME280;36550;50.472;19.744;2023-02-13T09:41:24;99920.70;;;7.75;77.74
50302;BME280;36550;50.472;19.744;2023-02-13T09:44:13;99915.06;;;7.86;78.21
50302;BME280;36550;50.472;19.744;2023-02-13T09:47:38;99912.86;;;7.97;77.89
50302;BME280;36550;50.472;19.744;2023-02-13T09:50:29;99911.08;;;7.96;77.27
50302;BME280;36550;50.472;19.744;2023-02-13T09:53:20;99907.95;;;7.93;77.14
50302;BME280;36550;50.472;19.744;2023-02-13T09:56:15;99906.55;;;7.83;77.30
50302;BME280;36550;50.472;19.744;2023-02-13T09:59:05;99898.21;;;7.87;77.61
50302;BME280;36550;50.472;19.744;2023-02-13T10:01:54;99904.47;;;7.97;77.16
50302;BME280;36550;50.472;19.744;2023-02-13T10:07:48;99900.27;;;8.00;77.09
50302;BME280;36550;50.472;19.744;2023-02-13T10:10:52;99897.52;;;8.06;77.24
50302;BME280;36550;50.472;19.744;2023-02-13T10:16:28;99899.75;;;7.97;76.26
50302;BME280;36550;50.472;19.744;2023-02-13T10:22:19;99890.24;;;7.85;76.25
50302;BME280;36550;50.472;19.744;2023-02-13T10:25:39;99885.88;;;7.82;76.37
50302;BME280;36550;50.472;19.744;2023-02-13T10:28:58;99883.84;;;7.77;76.09
50302;BME280;36550;50.472;19.744;2023-02-13T10:32:07;99874.23;;;7.61;76.25
50302;BME280;36550;50.472;19.744;2023-02-13T10:34:53;99870.73;;;7.52;76.54
50302;BME280;36550;50.472;19.744;2023-02-13T10:37:40;99868.77;;;7.53;76.82
50302;BME280;36550;50.472;19.744;2023-02-13T10:40:31;99866.14;;;7.65;77.14
50302;BME280;36550;50.472;19.744;2023-02-13T10:43:19;99853.86;;;7.80;76.73
50302;BME280;36550;50.472;19.744;2023-02-13T10:46:13;99844.48;;;7.86;76.41
50302;BME280;36550;50.472;19.744;2023-02-13T10:52:50;99834.09;;;7.68;75.82
50302;BME280;36550;50.472;19.744;2023-02-13T10:55:58;99836.33;;;7.78;76.20
50302;BME280;36550;50.472;19.744;2023-02-13T10:59:05;99831.52;;;8.00;76.65
50302;BME280;36550;50.472;19.744;2023-02-13T11:01:56;99832.45;;;8.17;76.78
50302;BME280;36550;50.472;19.744;2023-02-13T11:04:42;99831.71;;;8.24;76.43
50302;BME280;36550;50.472;19.744;2023-02-13T11:07:27;99836.41;;;8.25;76.18
50302;BME280;36550;50.472;19.744;2023-02-13T11:10:16;99842.80;;;8.14;76.26
50302;BME280;36550;50.472;19.744;2023-02-13T11:13:18;99842.71;;;8.07;76.49
50302;BME280;36550;50.472;19.744;2023-02-13T11:16:07;99841.02;;;7.92;76.04
50302;BME280;36550;50.472;19.744;2023-02-13T11:18:53;99840.05;;;7.79;76.18
50302;BME280;36550;50.472;19.744;2023-02-13T11:21:37;99845.23;;;7.67;76.52
50302;BME280;36550;50.472;19.744;2023-02-13T11:24:24;99850.03;;;7.58;76.46
50302;BME280;36550;50.472;19.744;2023-02-13T11:27:10;99847.91;;;7.49;76.55
50302;BME280;36550;50.472;19.744;2023-02-13T11:30:03;99848.16;;;7.42;76.42
50302;BME280;36550;50.472;19.744;2023-02-13T11:33:03;99851.30;;;7.43;76.74
50302;BME280;36550;50.472;19.744;2023-02-13T11:35:48;99853.51;;;7.44;77.00
50302;BME280;36550;50.472;19.744;2023-02-13T11:38:31;99846.79;;;7.40;77.03
50302;BME280;36550;50.472;19.744;2023-02-13T11:41:17;99842.63;;;7.35;77.02
50302;BME280;36550;50.472;19.744;2023-02-13T11:44:02;99838.27;;;7.40;77.26
50302;BME280;36550;50.472;19.744;2023-02-13T11:46:49;99836.97;;;7.44;77.16
50302;BME280;36550;50.472;19.744;2023-02-13T11:49:35;99833.25;;;7.57;77.27
50302;BME280;36550;50.472;19.744;2023-02-13T11:52:26;99824.65;;;7.69;77.22
50302;BME280;36550;50.472;19.744;2023-02-13T12:01:09;99817.61;;;8.01;76.96
50302;BME280;36550;50.472;19.744;2023-02-13T12:04:15;99815.80;;;8.15;77.02
50302;BME280;36550;50.472;19.744;2023-02-13T12:07:12;99816.98;;;8.22;76.39
50302;BME280;36550;50.472;19.744;2023-02-13T12:10:05;99816.27;;;8.26;76.65
50302;BME280;36550;50.472;19.744;2023-02-13T12:12:57;99819.65;;;8.24;76.37
50302;BME280;36550;50.472;19.744;2023-02-13T12:15:42;99815.83;;;8.24;76.47
50302;BME280;36550;50.472;19.744;2023-02-13T12:24:20;99800.52;;;8.12;76.10
50302;BME280;36550;50.472;19.744;2023-02-13T12:35:46;99785.52;;;7.96;75.91
50302;BME280;36550;50.472;19.744;2023-02-13T12:39:03;99786.52;;;7.92;76.06
50302;BME280;36550;50.472;19.744;2023-02-13T12:44:50;99779.67;;;7.91;76.66
50302;BME280;36550;50.472;19.744;2023-02-13T12:53:34;99776.16;;;7.99;76.47
50302;BME280;36550;50.472;19.744;2023-02-13T12:59:43;99778.30;;;7.95;76.42
50302;BME280;36550;50.472;19.744;2023-02-13T13:02:50;99783.10;;;7.85;76.37
50302;BME280;36550;50.472;19.744;2023-02-13T13:17:59;99776.70;;;7.55;76.64
50302;BME280;36550;50.472;19.744;2023-02-13T13:23:54;99778.70;;;7.24;77.04
50302;BME280;36550;50.472;19.744;2023-02-13T13:26:47;99779.46;;;7.14;77.38
50302;BME280;36550;50.472;19.744;2023-02-13T13:29:41;99778.59;;;7.03;77.49
50302;BME280;36550;50.472;19.744;2023-02-13T13:32:27;99783.21;;;6.94;77.61
50302;BME280;36550;50.472;19.744;2023-02-13T13:35:14;99790.36;;;6.90;77.79
50302;BME280;36550;50.472;19.744;2023-02-13T13:41:10;99811.39;;;6.63;78.21
50302;BME280;36550;50.472;19.744;2023-02-13T13:50:21;99801.44;;;6.11;79.35
50302;BME280;36550;50.472;19.744;2023-02-13T13:53:16;99799.89;;;5.94;79.38
50302;BME280;36550;50.472;19.744;2023-02-13T13:56:05;99793.30;;;5.77;79.80
50302;BME280;36550;50.472;19.744;2023-02-13T13:58:51;99794.58;;;5.66;79.98
50302;BME280;36550;50.472;19.744;2023-02-13T14:01:35;99792.30;;;5.61;80.17
50302;BME280;36550;50.472;19.744;2023-02-13T14:07:22;99779.65;;;5.66;80.34
50302;BME280;36550;50.472;19.744;2023-02-13T14:13:08;99774.52;;;5.82;80.72
50302;BME280;36550;50.472;19.744;2023-02-13T14:15:52;99777.55;;;5.85;80.78
50302;BME280;36550;50.472;19.744;2023-02-13T14:18:44;99773.66;;;5.82;80.72
50302;BME280;36550;50.472;19.744;2023-02-13T14:21:29;99767.99;;;5.81;80.27
50302;BME280;36550;50.472;19.744;2023-02-13T14:24:17;99766.20;;;5.78;80.08
50302;BME280;36550;50.472;19.744;2023-02-13T14:27:02;99764.63;;;5.73;80.04
50302;BME280;36550;50.472;19.744;2023-02-13T14:29:46;99761.05;;;5.68;80.07
50302;BME280;36550;50.472;19.744;2023-02-13T14:32:32;99749.61;;;5.65;80.07
50302;BME280;36550;50.472;19.744;2023-02-13T14:35:22;99740.53;;;5.60;80.33
50302;BME280;36550;50.472;19.744;2023-02-13T14:38:21;99740.23;;;5.54;80.44
50302;BME280;36550;50.472;19.744;2023-02-13T14:42:19;99746.11;;;5.52;80.38
50302;BME280;36550;50.472;19.744;2023-02-13T14:44:39;99748.08;;;5.47;80.61
50302;BME280;36550;50.472;19.744;2023-02-13T14:47:30;99753.33;;;5.38;80.61
50302;BME280;36550;50.472;19.744;2023-02-13T14:50:44;99754.35;;;5.27;81.02
50302;BME280;36550;50.472;19.744;2023-02-13T14:53:45;99754.05;;;5.16;80.91
50302;BME280;36550;50.472;19.744;2023-02-13T14:56:31;99748.91;;;5.07;81.21
50302;BME280;36550;50.472;19.744;2023-02-13T14:59:21;99748.64;;;4.94;80.98
50302;BME280;36550;50.472;19.744;2023-02-13T15:02:24;99747.73;;;4.77;80.15
50302;BME280;36550;50.472;19.744;2023-02-13T15:05:17;99744.27;;;4.57;80.02
50302;BME280;36550;50.472;19.744;2023-02-13T15:08:13;99748.08;;;4.49;80.33
50302;BME280;36550;50.472;19.744;2023-02-13T15:10:59;99751.09;;;4.43;80.54
50302;BME280;36550;50.472;19.744;2023-02-13T15:13:43;99744.75;;;4.35;80.77
50302;BME280;36550;50.472;19.744;2023-02-13T15:16:28;99739.23;;;4.30;80.93
50302;BME280;36550;50.472;19.744;2023-02-13T15:19:17;99740.41;;;4.24;81.11
50302;BME280;36550;50.472;19.744;2023-02-13T15:22:04;99744.31;;;4.20;81.25
50302;BME280;36550;50.472;19.744;2023-02-13T15:24:49;99744.52;;;4.19;81.13
50302;BME280;36550;50.472;19.744;2023-02-13T15:27:42;99743.34;;;4.16;81.31
50302;BME280;36550;50.472;19.744;2023-02-13T15:30:29;99742.23;;;4.11;81.48
50302;BME280;36550;50.472;19.744;2023-02-13T15:33:18;99744.86;;;4.07;81.70
50302;BME280;36550;50.472;19.744;2023-02-13T15:36:04;99755.34;;;4.06;81.63
50302;BME280;36550;50.472;19.744;2023-02-13T15:39:00;99751.63;;;4.05;81.92
50302;BME280;36550;50.472;19.744;2023-02-13T15:41:50;99744.88;;;3.98;82.30
50302;BME280;36550;50.472;19.744;2023-02-13T15:44:36;99745.61;;;3.94;82.41
50302;BME280;36550;50.472;19.744;2023-02-13T15:47:26;99750.38;;;3.89;82.46
50302;BME280;36550;50.472;19.744;2023-02-13T15:50:37;99739.74;;;3.87;82.59
50302;BME280;36550;50.472;19.744;2023-02-13T15:53:25;99741.70;;;3.82;82.66
50302;BME280;36550;50.472;19.744;2023-02-13T15:56:13;99740.47;;;3.77;82.81
50302;BME280;36550;50.472;19.744;2023-02-13T15:58:59;99747.41;;;3.74;82.84
50302;BME280;36550;50.472;19.744;2023-02-13T16:01:44;99758.02;;;3.70;82.93
50302;BME280;36550;50.472;19.744;2023-02-13T16:04:29;99765.31;;;3.69;83.00
50302;BME280;36550;50.472;19.744;2023-02-13T16:07:14;99772.72;;;3.68;83.04
50302;BME280;36550;50.472;19.744;2023-02-13T16:10:25;99774.38;;;3.64;83.22
50302;BME280;36550;50.472;19.744;2023-02-13T16:13:15;99769.09;;;3.62;83.29
50302;BME280;36550;50.472;19.744;2023-02-13T16:16:06;99778.58;;;3.60;83.40
50302;BME280;36550;50.472;19.744;2023-02-13T16:18:52;99777.65;;;3.58;83.99
50302;BME280;36550;50.472;19.744;2023-02-13T16:21:36;99777.26;;;3.58;83.66
50302;BME280;36550;50.472;19.744;2023-02-13T16:24:20;99790.77;;;3.59;83.64
50302;BME280;36550;50.472;19.744;2023-02-13T16:27:11;99786.69;;;3.55;84.01
50302;BME280;36550;50.472;19.744;2023-02-13T16:29:59;99783.86;;;3.54;83.77
50302;BME280;36550;50.472;19.744;2023-02-13T16:32:44;99778.23;;;3.53;83.92
50302;BME280;36550;50.472;19.744;2023-02-13T16:35:38;99754.36;;;3.53;83.81
50302;BME280;36550;50.472;19.744;2023-02-13T16:44:20;99736.11;;;3.61;83.30